sensor_id;sensor_type;location;lat;lon;timestamp;P1;P2;P0
50956;PMS5003;55361;50.876;20.634;2024-02-23T00:00:11;16;15;11
50956;PMS5003;55361;50.876;20.634;2024-02-23T00:10:10;17;16;13
50956;PMS5003;55361;50.876;20.634;2024-02-23T00:20:12;17;16;13
50956;PMS5003;55361;50.876;20.634;2024-02-23T00:30:14;17;16;13
50956;PMS5003;55361;50.876;20.634;2024-02-23T00:40:06;14;12;8
50956;PMS5003;55361;50.876;20.634;2024-02-23T00:50:01;14;12;8
50956;PMS5003;55361;50.876;20.634;2024-02-23T01:00:06;14;12;8
50956;PMS5003;55361;50.876;20.634;2024-02-23T01:10:10;8;8;6
50956;PMS5003;55361;50.876;20.634;2024-02-23T01:20:08;8;8;6
50956;PMS5003;55361;50.876;20.634;2024-02-23T01:30:10;8;8;6
50956;PMS5003;55361;50.876;20.634;2024-02-23T01:40:02;10;7;6
50956;PMS5003;55361;50.876;20.634;2024-02-23T01:50:08;10;7;6
50956;PMS5003;55361;50.876;20.634;2024-02-23T02:00:23;10;7;6
50956;PMS5003;55361;50.876;20.634;2024-02-23T02:10:15;5;5;4
50956;PMS5003;55361;50.876;20.634;2024-02-23T02:20:03;5;5;4
50956;PMS5003;55361;50.876;20.634;2024-02-23T02:30:05;5;5;4
50956;PMS5003;55361;50.876;20.634;2024-02-23T02:40:12;4;4;3
50956;PMS5003;55361;50.876;20.634;2024-02-23T02:50:02;4;4;3
50956;PMS5003;55361;50.876;20.634;2024-02-23T03:00:16;4;4;3
50956;PMS5003;55361;50.876;20.634;2024-02-23T03:10:05;7;7;4
50956;PMS5003;55361;50.876;20.634;2024-02-23T03:20:12;7;7;4
50956;PMS5003;55361;50.876;20.634;2024-02-23T03:30:05;7;7;4
50956;PMS5003;55361;50.876;20.634;2024-02-23T03:40:13;7;6;4
50956;PMS5003;55361;50.876;20.634;2024-02-23T03:50:05;7;6;4
50956;PMS5003;55361;50.876;20.634;2024-02-23T04:00:02;7;6;4
50956;PMS5003;55361;50.876;20.634;2024-02-23T04:10:05;4;4;3
50956;PMS5003;55361;50.876;20.634;2024-02-23T04:20:15;4;4;3
50956;PMS5003;55361;50.876;20.634;2024-02-23T04:30:15;4;4;3
50956;PMS5003;55361;50.876;20.634;2024-02-23T04:40:13;6;4;3
50956;PMS5003;55361;50.876;20.634;2024-02-23T04:50:11;6;4;3
50956;PMS5003;55361;50.876;20.634;2024-02-23T05:00:16;6;4;3
50956;PMS5003;55361;50.876;20.634;2024-02-23T05:10:02;9;9;6
50956;PMS5003;55361;50.876;20.634;2024-02-23T05:20:14;9;9;6
50956;PMS5003;55361;50.876;20.634;2024-02-23T05:30:09;9;9;6
50956;PMS5003;55361;50.876;20.634;2024-02-23T05:40:10;10;10;7
50956;PMS5003;55361;50.876;20.634;2024-02-23T05:50:11;10;10;7
50956;PMS5003;55361;50.876;20.634;2024-02-23T06:00:12;10;10;7
50956;PMS5003;55361;50.876;20.634;2024-02-23T06:10:13;11;9;7
50956;PMS5003;55361;50.876;20.634;2024-02-23T06:20:16;11;9;7
50956;PMS5003;55361;50.876;20.634;2024-02-23T06:30:02;11;9;7
50956;PMS5003;55361;50.876;20.634;2024-02-23T06:40:13;9;9;7
50956;PMS5003;55361;50.876;20.634;2024-02-23T06:50:05;9;9;7
50956;PMS5003;55361;50.876;20.634;2024-02-23T07:00:02;9;9;7
50956;PMS5003;55361;50.876;20.634;2024-02-23T07:10:07;11;10;7
50956;PMS5003;55361;50.876;20.634;2024-02-23T07:20:08;11;10;7
50956;PMS5003;55361;50.876;20.634;2024-02-23T07:30:08;11;10;7
50956;PMS5003;55361;50.876;20.634;2024-02-23T07:40:15;12;10;8
50956;PMS5003;55361;50.876;20.634;2024-02-23T07:50:06;12;10;8
50956;PMS5003;55361;50.876;20.634;2024-02-23T08:00:05;12;10;8
50956;PMS5003;55361;50.876;20.634;2024-02-23T08:20:09;18;14;11
50956;PMS5003;55361;50.876;20.634;2024-02-23T08:30:02;18;14;11
50956;PMS5003;55361;50.876;20.634;2024-02-23T08:40:07;14;13;9
50956;PMS5003;55361;50.876;20.634;2024-02-23T08:50:10;14;13;9
50956;PMS5003;55361;50.876;20.634;2024-02-23T09:00:11;14;13;9
50956;PMS5003;55361;50.876;20.634;2024-02-23T09:10:05;13;11;9
50956;PMS5003;55361;50.876;20.634;2024-02-23T09:20:15;13;11;9
50956;PMS5003;55361;50.876;20.634;2024-02-23T09:30:02;13;11;9
50956;PMS5003;55361;50.876;20.634;2024-02-23T09:40:06;11;10;8
50956;PMS5003;55361;50.876;20.634;2024-02-23T09:50:14;11;10;8
50956;PMS5003;55361;50.876;20.634;2024-02-23T10:00:10;11;10;8
50956;PMS5003;55361;50.876;20.634;2024-02-23T10:20:14;11;10;7
50956;PMS5003;55361;50.876;20.634;2024-02-23T10:30:07;11;10;7
50956;PMS5003;55361;50.876;20.634;2024-02-23T10:40:22;16;15;12
50956;PMS5003;55361;50.876;20.634;2024-02-23T10:50:08;16;15;12
50956;PMS5003;55361;50.876;20.634;2024-02-23T11:00:19;16;15;12
50956;PMS5003;55361;50.876;20.634;2024-02-23T11:10:05;12;12;10
50956;PMS5003;55361;50.876;20.634;2024-02-23T11:20:07;12;12;10
50956;PMS5003;55361;50.876;20.634;2024-02-23T11:30:10;12;12;10
50956;PMS5003;55361;50.876;20.634;2024-02-23T11:40:07;16;15;12
50956;PMS5003;55361;50.876;20.634;2024-02-23T11:50:11;16;15;12
50956;PMS5003;55361;50.876;20.634;2024-02-23T12:00:07;16;15;12
50956;PMS5003;55361;50.876;20.634;2024-02-23T12:10:03;16;15;12
50956;PMS5003;55361;50.876;20.634;2024-02-23T12:20:09;16;15;12
50956;PMS5003;55361;50.876;20.634;2024-02-23T12:30:02;16;15;12
50956;PMS5003;55361;50.876;20.634;2024-02-23T12:40:06;30;24;17
50956;PMS5003;55361;50.876;20.634;2024-02-23T12:50:12;30;24;17
50956;PMS5003;55361;50.876;20.634;2024-02-23T13:00:01;30;24;17
50956;PMS5003;55361;50.876;20.634;2024-02-23T13:10:09;18;17;12
50956;PMS5003;55361;50.876;20.634;2024-02-23T13:20:13;18;17;12
50956;PMS5003;55361;50.876;20.634;2024-02-23T13:30:16;18;17;12
50956;PMS5003;55361;50.876;20.634;2024-02-23T13:40:02;16;14;11
50956;PMS5003;55361;50.876;20.634;2024-02-23T13:50:14;16;14;11
50956;PMS5003;55361;50.876;20.634;2024-02-23T14:00:07;16;14;11
50956;PMS5003;55361;50.876;20.634;2024-02-23T14:30:04;14;13;9
50956;PMS5003;55361;50.876;20.634;2024-02-23T14:40:12;16;16;11
50956;PMS5003;55361;50.876;20.634;2024-02-23T14:50:08;16;16;11
50956;PMS5003;55361;50.876;20.634;2024-02-23T15:00:11;16;16;11
50956;PMS5003;55361;50.876;20.634;2024-02-23T15:10:08;21;19;13
50956;PMS5003;55361;50.876;20.634;2024-02-23T15:20:11;21;19;13
50956;PMS5003;55361;50.876;20.634;2024-02-23T15:30:04;21;19;13
50956;PMS5003;55361;50.876;20.634;2024-02-23T15:40:07;20;20;12
50956;PMS5003;55361;50.876;20.634;2024-02-23T15:50:12;20;20;12
50956;PMS5003;55361;50.876;20.634;2024-02-23T16:00:19;20;20;12
50956;PMS5003;55361;50.876;20.634;2024-02-23T16:10:13;20;18;13
50956;PMS5003;55361;50.876;20.634;2024-02-23T16:20:10;20;18;13
50956;PMS5003;55361;50.876;20.634;2024-02-23T16:30:07;20;18;13
50956;PMS5003;55361;50.876;20.634;2024-02-23T16:40:02;34;31;19
50956;PMS5003;55361;50.876;20.634;2024-02-23T16:50:11;34;31;19
50956;PMS5003;55361;50.876;20.634;2024-02-23T17:00:14;34;31;19
50956;PMS5003;55361;50.876;20.634;2024-02-23T17:20:14;18;16;11
50956;PMS5003;55361;50.876;20.634;2024-02-23T17:30:14;18;16;11
50956;PMS5003;55361;50.876;20.634;2024-02-23T17:50:02;43;34;24
50956;PMS5003;55361;50.876;20.634;2024-02-23T18:00:07;43;34;24
50956;PMS5003;55361;50.876;20.634;2024-02-23T18:20:06;48;36;23
50956;PMS5003;55361;50.876;20.634;2024-02-23T18:30:12;48;36;23
50956;PMS5003;55361;50.876;20.634;2024-02-23T18:50:10;38;33;23
50956;PMS5003;55361;50.876;20.634;2024-02-23T19:00:12;38;33;23
50956;PMS5003;55361;50.876;20.634;2024-02-23T19:20:13;60;45;31
50956;PMS5003;55361;50.876;20.634;2024-02-23T19:30:02;60;45;31
50956;PMS5003;55361;50.876;20.634;2024-02-23T19:40:02;60;45;31
50956;PMS5003;55361;50.876;20.634;2024-02-23T19:50:09;41;35;24
50956;PMS5003;55361;50.876;20.634;2024-02-23T20:00:17;41;35;24
50956;PMS5003;55361;50.876;20.634;2024-02-23T20:10:19;41;35;24
50956;PMS5003;55361;50.876;20.634;2024-02-23T20:20:04;41;34;24
50956;PMS5003;55361;50.876;20.634;2024-02-23T20:30:07;41;34;24
50956;PMS5003;55361;50.876;20.634;2024-02-23T20:40:08;41;34;24
50956;PMS5003;55361;50.876;20.634;2024-02-23T20:50:11;53;42;27
50956;PMS5003;55361;50.876;20.634;2024-02-23T21:00:08;53;42;27
50956;PMS5003;55361;50.876;20.634;2024-02-23T21:10:05;53;42;27
50956;PMS5003;55361;50.876;20.634;2024-02-23T21:20:08;36;32;21
50956;PMS5003;55361;50.876;20.634;2024-02-23T21:30:08;36;32;21
50956;PMS5003;55361;50.876;20.634;2024-02-23T21:40:10;36;32;21
50956;PMS5003;55361;50.876;20.634;2024-02-23T21:50:11;30;28;17
50956;PMS5003;55361;50.876;20.634;2024-02-23T22:00:18;30;28;17
50956;PMS5003;55361;50.876;20.634;2024-02-23T22:10:10;30;28;17
50956;PMS5003;55361;50.876;20.634;2024-02-23T22:20:08;29;25;17
50956;PMS5003;55361;50.876;20.634;2024-02-23T22:30:08;29;25;17
50956;PMS5003;55361;50.876;20.634;2024-02-23T22:40:02;29;25;17
50956;PMS5003;55361;50.876;20.634;2024-02-23T22:50:11;28;25;17
50956;PMS5003;55361;50.876;20.634;2024-02-23T23:00:19;28;25;17
50956;PMS5003;55361;50.876;20.634;2024-02-23T23:10:08;30;24;16
50956;PMS5003;55361;50.876;20.634;2024-02-23T23:20:02;30;24;16
50956;PMS5003;55361;50.876;20.634;2024-02-23T23:30:14;30;24;16
50956;PMS5003;55361;50.876;20.634;2024-02-23T23:40:09;24;20;14
50956;PMS5003;55361;50.876;20.634;2024-02-23T23:50:09;24;20;14
